createdAt,value
2017-07-04T00:01:40.715Z,95.40
2017-07-04T00:04:09.713Z,95.30
2017-07-04T00:06:39.632Z,95.40
2017-07-04T00:09:08.634Z,95.50
2017-07-04T00:11:37.622Z,95.60
2017-07-04T00:14:06.609Z,95.70
2017-07-04T00:16:35.654Z,95.80
2017-07-04T00:19:04.605Z,96.10
2017-07-04T00:21:33.549Z,96.50
2017-07-04T00:24:02.841Z,96.40
2017-07-04T00:26:31.860Z,96.50
2017-07-04T00:29:00.839Z,96.40
2017-07-04T00:31:29.850Z,96.30
2017-07-04T00:33:58.859Z,96.50
2017-07-04T00:36:27.848Z,96.60
2017-07-04T00:38:56.882Z,96.80
2017-07-04T00:41:25.834Z,96.90
2017-07-04T00:43:54.830Z,96.90
2017-07-04T00:46:23.812Z,97.10
2017-07-04T00:48:52.756Z,97.30
2017-07-04T00:51:21.808Z,97.30
2017-07-04T00:53:50.768Z,97.60
2017-07-04T00:56:19.846Z,97.80
2017-07-04T00:58:48.855Z,98.60
2017-07-04T01:01:20.814Z,98.70
2017-07-04T01:03:49.845Z,98.80
2017-07-04T01:06:18.801Z,98.90
2017-07-04T01:08:47.745Z,98.90
2017-07-04T01:11:16.747Z,99.20
2017-07-04T01:13:45.706Z,99.40
2017-07-04T01:16:14.709Z,99.60
2017-07-04T01:18:43.739Z,99.90
2017-07-04T01:21:12.711Z,99.90
2017-07-04T01:23:41.684Z,99.90
2017-07-04T01:26:10.929Z,99.90
2017-07-04T01:28:39.930Z,99.90
2017-07-04T01:31:08.975Z,99.90
2017-07-04T01:33:37.968Z,99.90
2017-07-04T01:36:06.957Z,99.90
2017-07-04T01:38:35.982Z,99.90
2017-07-04T01:41:04.933Z,99.90
2017-07-04T01:43:33.957Z,99.90
2017-07-04T01:46:02.978Z,99.90
2017-07-04T01:48:31.998Z,99.90
2017-07-04T01:51:00.996Z,99.90
2017-07-04T01:53:30.004Z,99.90
2017-07-04T01:55:59.002Z,99.90
2017-07-04T01:58:27.991Z,99.90
2017-07-04T02:00:57.000Z,99.90
2017-07-04T02:03:25.991Z,99.90
2017-07-04T02:05:54.993Z,99.90
2017-07-04T02:08:23.967Z,99.90
2017-07-04T02:10:52.956Z,99.90
2017-07-04T02:13:21.938Z,99.90
2017-07-04T02:15:50.922Z,99.90
2017-07-04T02:18:20.236Z,99.90
2017-07-04T02:20:49.304Z,99.90
2017-07-04T02:23:18.320Z,99.90
2017-07-04T02:25:47.279Z,99.90
2017-07-04T02:28:16.262Z,99.90
2017-07-04T02:30:45.220Z,99.90
2017-07-04T02:33:14.176Z,99.90
2017-07-04T02:35:49.556Z,99.90
2017-07-04T02:38:18.530Z,99.90
2017-07-04T02:40:47.518Z,99.90
2017-07-04T02:43:16.617Z,99.90
2017-07-04T02:45:45.628Z,99.90
2017-07-04T02:48:14.708Z,99.90
2017-07-04T02:50:43.710Z,99.90
2017-07-04T02:53:12.715Z,99.90
2017-07-04T02:55:41.714Z,99.90
2017-07-04T02:59:12.974Z,99.90
2017-07-04T03:01:41.992Z,99.90
2017-07-04T03:04:11.309Z,99.90
2017-07-04T03:06:40.686Z,99.90
2017-07-04T03:09:09.932Z,99.90
2017-07-04T03:11:38.928Z,99.90
2017-07-04T03:15:27.028Z,99.90
2017-07-04T03:17:56.365Z,99.90
2017-07-04T03:20:25.335Z,99.90
2017-07-04T03:22:54.344Z,99.90
2017-07-04T03:25:23.346Z,99.90
2017-07-04T03:27:52.413Z,99.90
2017-07-04T03:30:21.439Z,99.90
2017-07-04T03:32:50.438Z,99.90
2017-07-04T03:35:19.437Z,99.90
2017-07-04T03:37:48.417Z,99.90
2017-07-04T03:40:17.353Z,99.90
2017-07-04T03:42:46.325Z,99.90
2017-07-04T03:45:15.293Z,99.90
2017-07-04T03:47:44.301Z,99.90
2017-07-04T03:50:13.269Z,99.90
2017-07-04T03:52:42.530Z,99.90
2017-07-04T03:55:12.225Z,99.90
2017-07-04T03:57:41.273Z,99.90
2017-07-04T04:00:10.973Z,99.90
2017-07-04T04:02:39.965Z,99.90
2017-07-04T04:05:09.276Z,99.90
2017-07-04T04:07:38.270Z,99.90
2017-07-04T04:10:07.225Z,99.90
2017-07-04T04:12:36.161Z,99.90
2017-07-04T04:15:05.148Z,99.90
2017-07-04T04:17:34.212Z,99.90
2017-07-04T04:20:03.277Z,99.90
2017-07-04T04:22:32.272Z,99.90
2017-07-04T04:25:01.278Z,99.90
2017-07-04T04:27:30.257Z,99.90
2017-07-04T04:29:59.231Z,99.90
2017-07-04T04:32:28.231Z,99.90
2017-07-04T04:34:57.254Z,99.90
2017-07-04T04:37:26.239Z,99.90
2017-07-04T04:39:55.226Z,99.90
2017-07-04T04:42:24.234Z,99.90
2017-07-04T04:44:53.329Z,99.90
2017-07-04T04:47:22.401Z,99.90
2017-07-04T04:49:51.369Z,99.90
2017-07-04T04:52:20.370Z,99.90
2017-07-04T04:54:49.372Z,99.90
2017-07-04T04:57:18.693Z,99.90
2017-07-04T04:59:47.766Z,99.30
2017-07-04T05:02:16.726Z,97.70
2017-07-04T05:04:45.744Z,96.70
2017-07-04T05:07:14.764Z,96.90
2017-07-04T05:09:43.762Z,95.80
2017-07-04T05:12:13.146Z,95.20
2017-07-04T05:14:42.166Z,94.70
2017-07-04T05:17:11.183Z,93.80
2017-07-04T05:19:40.150Z,92.90
2017-07-04T05:22:09.212Z,92.30
2017-07-04T05:24:38.182Z,92.00
2017-07-04T05:27:07.273Z,91.50
2017-07-04T05:29:36.266Z,90.90
2017-07-04T05:32:05.229Z,91.10
2017-07-04T05:34:34.253Z,89.90
2017-07-04T05:37:03.217Z,89.70
2017-07-04T05:39:32.257Z,90.00
2017-07-04T05:42:01.182Z,90.40
2017-07-04T05:44:30.326Z,90.80
2017-07-04T05:46:59.311Z,91.20
2017-07-04T05:49:28.277Z,91.30
2017-07-04T05:51:57.212Z,90.90
2017-07-04T05:54:26.231Z,90.80
2017-07-04T05:56:55.249Z,90.30
2017-07-04T05:59:24.271Z,89.30
2017-07-04T06:01:53.640Z,88.10
2017-07-04T06:04:22.681Z,88.00
2017-07-04T06:06:51.722Z,88.50
2017-07-04T06:09:20.739Z,89.30
2017-07-04T06:11:49.898Z,87.90
2017-07-04T06:14:18.976Z,88.80
2017-07-04T06:16:47.965Z,88.70
2017-07-04T06:19:17.045Z,90.00
2017-07-04T06:21:46.186Z,90.10
2017-07-04T06:24:15.339Z,88.80
2017-07-04T06:26:44.497Z,89.40
2017-07-04T06:29:13.858Z,90.90
2017-07-04T06:31:42.967Z,90.50
2017-07-04T06:34:12.139Z,91.10
2017-07-04T06:36:42.440Z,90.20
2017-07-04T06:39:11.498Z,90.00
2017-07-04T06:41:40.499Z,90.40
2017-07-04T06:44:10.101Z,86.90
2017-07-04T06:46:39.161Z,82.20
2017-07-04T06:49:08.626Z,80.50
2017-07-04T06:51:37.647Z,78.50
2017-07-04T06:54:06.892Z,76.80
2017-07-04T06:56:35.913Z,75.80
2017-07-04T06:59:05.673Z,75.90
2017-07-04T07:01:34.746Z,76.40
2017-07-04T07:04:03.747Z,77.80
2017-07-04T07:06:32.822Z,80.00
2017-07-04T07:09:01.850Z,79.80
2017-07-04T07:11:31.000Z,76.40
2017-07-04T07:13:59.993Z,74.70
2017-07-04T07:16:28.984Z,73.80
2017-07-04T07:18:57.932Z,74.10
2017-07-04T07:21:26.978Z,75.20
2017-07-04T07:23:56.300Z,76.30
2017-07-04T07:26:25.555Z,79.30
2017-07-04T07:28:54.651Z,79.30
2017-07-04T07:31:23.765Z,79.60
2017-07-04T07:33:52.813Z,80.70
2017-07-04T07:36:22.274Z,81.50
2017-07-04T07:38:51.455Z,84.30
2017-07-04T07:41:20.489Z,86.80
2017-07-04T07:43:49.495Z,87.10
2017-07-04T07:46:18.496Z,88.00
2017-07-04T07:48:47.479Z,86.60
2017-07-04T07:51:16.458Z,83.90
2017-07-04T07:53:45.442Z,80.30
2017-07-04T07:56:14.418Z,81.60
2017-07-04T07:58:43.405Z,81.90
2017-07-04T08:01:12.560Z,84.10
2017-07-04T08:03:41.631Z,83.70
2017-07-04T08:06:10.624Z,82.60
2017-07-04T08:08:39.661Z,82.40
2017-07-04T08:11:08.702Z,82.30
2017-07-04T08:13:37.702Z,83.40
2017-07-04T08:16:06.664Z,86.60
2017-07-04T08:18:35.661Z,89.40
2017-07-04T08:21:05.034Z,90.70
2017-07-04T08:23:34.072Z,91.60
2017-07-04T08:26:03.093Z,91.90
2017-07-04T08:28:32.185Z,91.50
2017-07-04T08:31:01.266Z,90.70
2017-07-04T08:33:32.201Z,90.80
2017-07-04T08:36:01.218Z,90.40
2017-07-04T08:38:30.248Z,88.50
2017-07-04T08:40:59.259Z,86.00
2017-07-04T08:43:28.271Z,86.60
2017-07-04T08:45:57.259Z,85.80
2017-07-04T08:48:26.229Z,85.70
2017-07-04T08:50:55.276Z,87.10
2017-07-04T08:53:24.262Z,87.20
2017-07-04T08:55:53.353Z,88.50
2017-07-04T08:58:22.402Z,90.00
2017-07-04T09:00:51.910Z,90.00
2017-07-04T09:03:21.046Z,91.10
2017-07-04T09:05:50.117Z,91.90
2017-07-04T09:08:19.234Z,92.10
2017-07-04T09:10:48.347Z,92.80
2017-07-04T09:13:17.518Z,92.70
2017-07-04T09:15:46.513Z,92.10
2017-07-04T09:18:15.476Z,91.80
2017-07-04T09:20:44.536Z,93.10
2017-07-04T09:23:13.605Z,92.90
2017-07-04T09:25:42.695Z,92.90
2017-07-04T09:28:12.084Z,93.20
2017-07-04T09:30:41.277Z,92.60
2017-07-04T09:33:10.314Z,92.60
2017-07-04T09:35:39.569Z,91.90
2017-07-04T09:38:08.584Z,91.60
2017-07-04T09:40:37.580Z,91.50
2017-07-04T09:43:06.567Z,90.50
2017-07-04T09:45:35.640Z,87.90
2017-07-04T09:48:04.605Z,81.00
2017-07-04T09:50:33.594Z,76.40
2017-07-04T09:53:02.804Z,68.60
2017-07-04T09:55:38.172Z,66.60
2017-07-04T09:58:07.201Z,65.60
2017-07-04T10:00:36.213Z,64.40
2017-07-04T10:03:05.269Z,67.00
2017-07-04T10:05:34.245Z,73.80
2017-07-04T10:08:03.284Z,74.60
2017-07-04T10:10:32.436Z,73.60
2017-07-04T10:13:01.525Z,68.30
2017-07-04T10:15:30.604Z,62.50
2017-07-04T10:17:59.645Z,58.90
2017-07-04T10:20:28.645Z,56.40
2017-07-04T10:22:57.801Z,58.50
2017-07-04T10:25:27.101Z,63.60
2017-07-04T10:27:56.789Z,66.90
2017-07-04T10:30:26.820Z,69.10
2017-07-04T10:32:55.952Z,72.50
2017-07-04T10:35:25.025Z,75.30
2017-07-04T10:38:08.667Z,76.00
2017-07-04T10:40:37.699Z,71.40
2017-07-04T10:43:06.876Z,63.70
2017-07-04T10:45:35.903Z,62.50
2017-07-04T10:48:04.946Z,65.20
2017-07-04T10:50:35.014Z,64.90
2017-07-04T10:53:04.154Z,66.20
2017-07-04T10:55:33.345Z,65.90
2017-07-04T10:58:02.703Z,67.70
2017-07-04T11:00:31.756Z,70.00
2017-07-04T11:03:00.875Z,70.00
2017-07-04T11:05:29.904Z,71.40
2017-07-04T11:07:58.949Z,66.70
2017-07-04T11:10:28.006Z,69.20
2017-07-04T11:12:57.038Z,70.40
2017-07-04T11:15:26.055Z,70.60
2017-07-04T11:17:55.559Z,70.90
2017-07-04T11:20:24.629Z,73.40
2017-07-04T11:22:53.981Z,73.50
2017-07-04T11:25:23.063Z,74.30
2017-07-04T11:27:52.190Z,68.40
2017-07-04T11:30:21.441Z,65.80
2017-07-04T11:32:50.554Z,58.80
2017-07-04T11:35:19.576Z,59.90
2017-07-04T11:37:48.622Z,60.50
2017-07-04T11:40:17.937Z,59.10
2017-07-04T11:42:47.034Z,59.30
2017-07-04T11:45:16.058Z,58.40
2017-07-04T11:47:45.119Z,60.10
2017-07-04T11:50:14.270Z,61.00
2017-07-04T11:52:43.540Z,62.60
2017-07-04T11:55:12.757Z,61.30
2017-07-04T11:57:41.803Z,57.80
2017-07-04T12:00:10.895Z,58.70
2017-07-04T12:02:40.011Z,60.90
2017-07-04T12:05:09.050Z,59.40
2017-07-04T12:07:38.081Z,59.80
2017-07-04T12:10:07.194Z,62.40
2017-07-04T12:12:36.458Z,64.50
2017-07-04T12:15:05.745Z,67.20
2017-07-04T12:17:34.772Z,67.70
2017-07-04T12:20:03.860Z,69.40
2017-07-04T12:22:32.977Z,70.60
2017-07-04T12:25:13.541Z,70.00
2017-07-04T12:27:42.654Z,71.20
2017-07-04T12:30:11.776Z,68.30
2017-07-04T12:32:40.849Z,67.40
2017-07-04T12:35:10.018Z,66.00
2017-07-04T12:37:40.198Z,69.70
2017-07-04T12:40:09.276Z,69.60
2017-07-04T12:42:38.345Z,70.10
2017-07-04T12:45:07.381Z,69.30
2017-07-04T12:47:36.448Z,67.10
2017-07-04T12:50:05.508Z,68.80
2017-07-04T12:52:34.608Z,69.30
2017-07-04T12:55:03.658Z,69.80
2017-07-04T12:57:32.728Z,69.30
2017-07-04T13:00:01.899Z,71.60
2017-07-04T13:02:31.059Z,67.70
2017-07-04T13:05:00.101Z,68.20
2017-07-04T13:07:29.189Z,67.60
2017-07-04T13:09:59.081Z,66.30
2017-07-04T13:12:28.137Z,66.60
2017-07-04T13:14:57.174Z,68.30
2017-07-04T13:17:26.167Z,69.10
2017-07-04T13:19:55.209Z,68.50
2017-07-04T13:22:24.392Z,68.90
2017-07-04T13:24:53.556Z,70.10
2017-07-04T13:27:22.709Z,70.10
2017-07-04T13:29:51.800Z,71.30
2017-07-04T13:32:20.931Z,70.90
2017-07-04T13:34:50.042Z,71.30
2017-07-04T13:37:19.382Z,69.50
2017-07-04T13:39:48.433Z,70.50
2017-07-04T13:42:17.487Z,69.70
2017-07-04T13:44:46.517Z,70.80
2017-07-04T13:47:15.506Z,70.50
2017-07-04T13:49:44.503Z,70.90
2017-07-04T13:52:13.620Z,70.00
2017-07-04T13:54:43.611Z,69.50
2017-07-04T13:57:12.795Z,72.60
2017-07-04T13:59:42.806Z,72.40
2017-07-04T14:02:11.901Z,73.40
2017-07-04T14:04:40.982Z,73.20
2017-07-04T14:07:10.030Z,73.10
2017-07-04T14:09:39.129Z,72.80
2017-07-04T14:12:08.210Z,73.50
2017-07-04T14:14:37.181Z,72.70
2017-07-04T14:17:06.289Z,73.00
2017-07-04T14:19:35.307Z,72.70
2017-07-04T14:22:04.318Z,73.30
2017-07-04T14:24:33.363Z,73.70
2017-07-04T14:27:02.465Z,73.90
2017-07-04T14:29:31.530Z,74.10
2017-07-04T14:32:00.557Z,75.80
2017-07-04T14:34:35.839Z,74.20
2017-07-04T14:37:04.953Z,74.30
2017-07-04T14:39:33.983Z,74.80
2017-07-04T14:42:03.190Z,75.40
2017-07-04T14:44:32.474Z,73.90
2017-07-04T14:47:01.646Z,73.10
2017-07-04T14:49:31.491Z,72.90
2017-07-04T14:52:00.639Z,70.60
2017-07-04T14:54:29.609Z,72.90
2017-07-04T14:56:58.766Z,72.30
2017-07-04T14:59:27.809Z,71.30
2017-07-04T15:01:56.927Z,71.60
2017-07-04T15:04:26.268Z,73.40
2017-07-04T15:06:55.391Z,74.10
2017-07-04T15:09:24.618Z,75.30
2017-07-04T15:11:53.733Z,76.10
2017-07-04T15:14:22.856Z,75.90
2017-07-04T15:16:52.022Z,75.80
2017-07-04T15:19:21.590Z,75.90
2017-07-04T15:21:50.924Z,76.10
2017-07-04T15:24:20.088Z,74.00
2017-07-04T15:26:49.162Z,73.50
2017-07-04T15:29:19.113Z,73.50
2017-07-04T15:31:48.222Z,75.20
2017-07-04T15:34:17.298Z,73.20
2017-07-04T15:36:46.577Z,74.20
2017-07-04T15:39:15.695Z,74.60
2017-07-04T15:41:44.759Z,74.80
2017-07-04T15:44:13.862Z,77.10
2017-07-04T15:46:42.901Z,76.20
2017-07-04T15:49:12.051Z,74.60
2017-07-04T15:51:41.031Z,74.50
2017-07-04T15:54:10.051Z,75.70
2017-07-04T15:56:39.099Z,75.30
2017-07-04T15:59:08.142Z,75.90
2017-07-04T16:01:37.247Z,75.90
2017-07-04T16:04:06.402Z,75.50
2017-07-04T16:06:35.564Z,77.90
2017-07-04T16:09:04.850Z,75.00
2017-07-04T16:11:33.853Z,76.20
2017-07-04T16:14:02.855Z,76.60
2017-07-04T16:16:31.897Z,77.50
2017-07-04T16:19:00.920Z,75.80
2017-07-04T16:21:29.980Z,76.90
2017-07-04T16:23:58.974Z,76.30
2017-07-04T16:26:27.969Z,75.70
2017-07-04T16:28:57.031Z,75.90
2017-07-04T16:31:26.069Z,77.30
2017-07-04T16:33:55.108Z,77.10
2017-07-04T16:36:24.121Z,76.50
2017-07-04T16:38:53.143Z,76.60
2017-07-04T16:41:22.190Z,75.30
2017-07-04T16:43:51.206Z,75.80
2017-07-04T16:46:20.197Z,75.00
2017-07-04T16:48:49.187Z,75.30
2017-07-04T16:51:18.230Z,76.70
2017-07-04T16:53:47.395Z,77.40
2017-07-04T16:56:16.513Z,77.90
2017-07-04T16:58:45.528Z,76.70
2017-07-04T17:01:14.671Z,76.50
2017-07-04T17:03:43.665Z,76.20
2017-07-04T17:06:12.945Z,77.10
2017-07-04T17:08:41.950Z,77.40
2017-07-04T17:11:10.999Z,77.40
2017-07-04T17:13:40.063Z,77.70
2017-07-04T17:16:16.240Z,78.60
2017-07-04T17:18:45.377Z,78.60
2017-07-04T17:21:14.528Z,77.70
2017-07-04T17:23:43.587Z,78.20
2017-07-04T17:26:13.131Z,79.10
2017-07-04T17:28:42.304Z,80.60
2017-07-04T17:31:11.344Z,80.10
2017-07-04T17:33:40.663Z,79.80
2017-07-04T17:36:09.861Z,81.40
2017-07-04T17:38:38.961Z,80.70
2017-07-04T17:41:07.983Z,78.80
2017-07-04T17:43:37.365Z,75.90
2017-07-04T17:46:13.514Z,76.50
2017-07-04T17:48:42.552Z,77.40
2017-07-04T17:51:11.552Z,78.20
2017-07-04T17:53:40.733Z,78.30
2017-07-04T17:56:09.694Z,77.90
2017-07-04T17:58:38.762Z,78.30
2017-07-04T18:01:07.926Z,79.10
2017-07-04T18:03:37.130Z,80.50
2017-07-04T18:06:11.594Z,80.00
2017-07-04T18:08:40.611Z,80.60
2017-07-04T18:11:09.643Z,79.80
2017-07-04T18:13:38.699Z,79.00
2017-07-04T18:16:07.755Z,79.50
2017-07-04T18:18:36.825Z,79.40
2017-07-04T18:21:05.953Z,79.30
2017-07-04T18:23:35.054Z,79.20
2017-07-04T18:26:04.126Z,81.00
2017-07-04T18:28:33.198Z,80.60
2017-07-04T18:31:02.239Z,80.90
2017-07-04T18:33:31.417Z,81.70
2017-07-04T18:36:00.495Z,82.00
2017-07-04T18:38:29.631Z,81.90
2017-07-04T18:40:59.246Z,82.40
2017-07-04T18:43:29.654Z,82.90
2017-07-04T18:46:00.742Z,83.80
2017-07-04T18:48:33.489Z,84.40
2017-07-04T18:51:02.621Z,84.20
2017-07-04T18:53:31.675Z,85.50
2017-07-04T18:56:00.710Z,85.50
2017-07-04T18:58:29.755Z,85.50
2017-07-04T19:01:29.348Z,86.20
2017-07-04T19:03:58.539Z,87.50
2017-07-04T19:06:27.649Z,87.80
2017-07-04T19:08:56.789Z,88.00
2017-07-04T19:11:25.861Z,89.10
2017-07-04T19:13:55.154Z,90.10
2017-07-04T19:16:27.385Z,90.90
2017-07-04T19:18:56.616Z,91.40
2017-07-04T19:21:28.708Z,91.90
2017-07-04T19:23:57.936Z,92.80
2017-07-04T19:26:26.936Z,93.60
2017-07-04T19:28:56.329Z,94.00
2017-07-04T19:31:25.388Z,94.40
2017-07-04T19:33:54.440Z,94.50
2017-07-04T19:36:28.911Z,94.50
2017-07-04T19:38:58.020Z,94.80
2017-07-04T19:41:27.215Z,95.40
2017-07-04T19:43:56.284Z,94.80
2017-07-04T19:46:25.307Z,95.50
2017-07-04T19:48:54.421Z,95.90
2017-07-04T19:51:23.547Z,95.80
2017-07-04T19:53:52.751Z,96.50
2017-07-04T19:56:28.338Z,96.80
2017-07-04T19:58:57.522Z,95.70
2017-07-04T20:01:29.997Z,95.40
2017-07-04T20:03:59.174Z,95.50
2017-07-04T20:06:28.754Z,95.50
2017-07-04T20:08:59.408Z,97.10
2017-07-04T20:11:28.802Z,96.00
2017-07-04T20:13:58.032Z,96.70
2017-07-04T20:16:27.076Z,96.20
2017-07-04T20:18:56.139Z,96.40
2017-07-04T20:21:26.819Z,96.10
2017-07-04T20:23:56.151Z,96.50
2017-07-04T20:26:31.544Z,97.10
2017-07-04T20:29:00.675Z,97.70
2017-07-04T20:31:29.919Z,98.10
2017-07-04T20:33:59.128Z,98.40
2017-07-04T20:36:28.187Z,98.10
2017-07-04T20:38:57.235Z,97.40
2017-07-04T20:41:26.638Z,97.40
2017-07-04T20:43:57.189Z,96.80
2017-07-04T20:46:26.366Z,95.90
2017-07-04T20:48:55.437Z,97.50
2017-07-04T20:51:24.465Z,97.90
2017-07-04T20:53:53.433Z,97.60
2017-07-04T20:56:26.361Z,97.00
2017-07-04T20:58:55.391Z,97.00
2017-07-04T21:01:24.473Z,96.00
2017-07-04T21:03:53.585Z,96.40
2017-07-04T21:06:22.587Z,97.20
2017-07-04T21:08:51.570Z,96.80
2017-07-04T21:11:20.585Z,97.20
2017-07-04T21:13:49.573Z,97.60
2017-07-04T21:16:18.610Z,98.00
2017-07-04T21:18:47.665Z,97.90
2017-07-04T21:21:16.760Z,97.70
2017-07-04T21:23:45.842Z,98.10
2017-07-04T21:26:14.865Z,98.30
2017-07-04T21:28:43.895Z,98.20
2017-07-04T21:31:12.928Z,98.30
2017-07-04T21:33:41.960Z,98.90
2017-07-04T21:36:10.930Z,98.10
2017-07-04T21:38:39.932Z,98.80
2017-07-04T21:41:09.001Z,99.20
2017-07-04T21:43:38.595Z,99.80
2017-07-04T21:46:11.224Z,99.00
2017-07-04T21:48:41.199Z,98.70
2017-07-04T21:51:10.679Z,99.20
2017-07-04T21:53:40.587Z,99.00
2017-07-04T21:56:09.962Z,99.70
2017-07-04T21:58:39.390Z,98.30
2017-07-04T22:01:08.395Z,98.40
2017-07-04T22:03:37.390Z,97.80
2017-07-04T22:06:06.361Z,98.10
2017-07-04T22:08:35.340Z,98.00
2017-07-04T22:11:04.605Z,97.60
2017-07-04T22:13:33.636Z,97.90
2017-07-04T22:16:02.742Z,98.40
2017-07-04T22:18:31.741Z,98.60
2017-07-04T22:21:00.710Z,98.80
2017-07-04T22:23:29.697Z,98.90
2017-07-04T22:25:58.653Z,99.10
2017-07-04T22:28:27.662Z,98.70
2017-07-04T22:30:56.698Z,98.20
2017-07-04T22:33:25.680Z,97.70
2017-07-04T22:35:54.739Z,97.10
2017-07-04T22:38:23.783Z,97.70
2017-07-04T22:40:52.784Z,97.80
2017-07-04T22:43:21.767Z,97.70
2017-07-04T22:45:50.752Z,97.90
2017-07-04T22:48:20.055Z,97.10
2017-07-04T22:50:49.063Z,97.90
2017-07-04T22:53:19.447Z,97.70
2017-07-04T22:55:48.467Z,97.90
2017-07-04T22:58:17.434Z,98.00
2017-07-04T23:00:46.439Z,97.90
2017-07-04T23:03:15.580Z,98.70
2017-07-04T23:05:44.617Z,98.70
2017-07-04T23:08:13.633Z,98.80
2017-07-04T23:10:42.766Z,99.90
2017-07-04T23:13:11.735Z,99.90
2017-07-04T23:15:40.792Z,99.90
2017-07-04T23:18:09.814Z,99.90
2017-07-04T23:20:38.785Z,99.40
2017-07-04T23:23:07.762Z,99.00
2017-07-04T23:25:36.783Z,98.60
2017-07-04T23:28:05.748Z,98.30
2017-07-04T23:30:34.736Z,98.50
2017-07-04T23:33:06.631Z,98.20
2017-07-04T23:35:35.610Z,98.00
2017-07-04T23:38:04.626Z,98.30
2017-07-04T23:40:33.858Z,98.50
2017-07-04T23:43:03.102Z,98.20
2017-07-04T23:45:32.245Z,98.50
2017-07-04T23:48:01.361Z,98.50
2017-07-04T23:50:30.415Z,98.40
2017-07-04T23:52:59.499Z,99.90
2017-07-04T23:55:28.499Z,99.80
2017-07-04T23:57:57.492Z,99.90
